sensor_id;sensor_type;location;lat;lon;timestamp;temperature;humidity
34542;DHT22;20784;51.332;12.410;2022-12-29T00:01:03;9.20;99.90
34542;DHT22;20784;51.332;12.410;2022-12-29T00:03:31;9.60;99.90
34542;DHT22;20784;51.332;12.410;2022-12-29T00:06:00;9.40;99.90
34542;DHT22;20784;51.332;12.410;2022-12-29T00:08:28;9.40;99.90
34542;DHT22;20784;51.332;12.410;2022-12-29T00:11:09;9.40;99.90
34542;DHT22;20784;51.332;12.410;2022-12-29T00:13:36;9.40;99.90
34542;DHT22;20784;51.332;12.410;2022-12-29T00:16:20;9.40;99.90
34542;DHT22;20784;51.332;12.410;2022-12-29T00:18:49;9.40;99.90
34542;DHT22;20784;51.332;12.410;2022-12-29T00:21:20;9.40;99.90
34542;DHT22;20784;51.332;12.410;2022-12-29T00:24:04;9.20;99.90
34542;DHT22;20784;51.332;12.410;2022-12-29T00:30:09;9.60;99.90
34542;DHT22;20784;51.332;12.410;2022-12-29T00:32:54;9.50;99.90
34542;DHT22;20784;51.332;12.410;2022-12-29T00:38:40;9.60;99.90
34542;DHT22;20784;51.332;12.410;2022-12-29T00:41:25;9.60;99.90
34542;DHT22;20784;51.332;12.410;2022-12-29T00:44:12;9.70;99.90
34542;DHT22;20784;51.332;12.410;2022-12-29T00:46:40;9.60;99.90
34542;DHT22;20784;51.332;12.410;2022-12-29T00:49:10;9.60;99.90
34542;DHT22;20784;51.332;12.410;2022-12-29T00:52:00;9.70;99.90
34542;DHT22;20784;51.332;12.410;2022-12-29T00:54:27;9.70;99.90
34542;DHT22;20784;51.332;12.410;2022-12-29T00:56:53;9.80;99.90
34542;DHT22;20784;51.332;12.410;2022-12-29T00:59:22;10.10;99.90
34542;DHT22;20784;51.332;12.410;2022-12-29T01:01:50;9.80;99.90
34542;DHT22;20784;51.332;12.410;2022-12-29T01:04:15;9.80;99.90
34542;DHT22;20784;51.332;12.410;2022-12-29T01:06:41;9.80;99.90
34542;DHT22;20784;51.332;12.410;2022-12-29T01:09:07;9.90;99.90
34542;DHT22;20784;51.332;12.410;2022-12-29T01:11:52;9.90;99.90
34542;DHT22;20784;51.332;12.410;2022-12-29T01:14:18;10.00;99.90
34542;DHT22;20784;51.332;12.410;2022-12-29T01:16:45;9.90;99.90
34542;DHT22;20784;51.332;12.410;2022-12-29T01:19:13;10.00;99.90
34542;DHT22;20784;51.332;12.410;2022-12-29T01:21:42;10.10;99.90
34542;DHT22;20784;51.332;12.410;2022-12-29T01:24:08;10.10;99.90
34542;DHT22;20784;51.332;12.410;2022-12-29T01:26:34;10.10;99.90
34542;DHT22;20784;51.332;12.410;2022-12-29T01:28:59;10.10;99.90
34542;DHT22;20784;51.332;12.410;2022-12-29T01:31:25;10.30;99.90
34542;DHT22;20784;51.332;12.410;2022-12-29T01:33:51;10.20;99.90
34542;DHT22;20784;51.332;12.410;2022-12-29T01:36:17;10.20;99.90
34542;DHT22;20784;51.332;12.410;2022-12-29T01:38:43;10.30;99.90
34542;DHT22;20784;51.332;12.410;2022-12-29T01:41:11;10.30;99.90
34542;DHT22;20784;51.332;12.410;2022-12-29T01:49:09;10.40;99.90
34542;DHT22;20784;51.332;12.410;2022-12-29T01:51:38;10.40;99.90
34542;DHT22;20784;51.332;12.410;2022-12-29T01:54:11;10.40;99.90
34542;DHT22;20784;51.332;12.410;2022-12-29T01:56:38;10.40;99.90
34542;DHT22;20784;51.332;12.410;2022-12-29T01:59:08;10.40;99.90
34542;DHT22;20784;51.332;12.410;2022-12-29T02:01:36;10.40;99.90
34542;DHT22;20784;51.332;12.410;2022-12-29T02:04:03;10.40;99.90
34542;DHT22;20784;51.332;12.410;2022-12-29T02:06:34;10.90;99.90
34542;DHT22;20784;51.332;12.410;2022-12-29T02:09:02;10.50;99.90
34542;DHT22;20784;51.332;12.410;2022-12-29T02:11:29;10.40;99.90
34542;DHT22;20784;51.332;12.410;2022-12-29T02:13:55;10.50;99.90
34542;DHT22;20784;51.332;12.410;2022-12-29T02:21:58;10.50;99.90
34542;DHT22;20784;51.332;12.410;2022-12-29T02:27:15;10.40;99.90
34542;DHT22;20784;51.332;12.410;2022-12-29T02:35:29;10.50;99.90
34542;DHT22;20784;51.332;12.410;2022-12-29T02:38:20;10.50;99.90
34542;DHT22;20784;51.332;12.410;2022-12-29T02:41:04;11.70;99.90
34542;DHT22;20784;51.332;12.410;2022-12-29T02:52:01;10.60;99.90
34542;DHT22;20784;51.332;12.410;2022-12-29T02:54:28;10.60;99.90
34542;DHT22;20784;51.332;12.410;2022-12-29T02:57:27;10.60;99.90
34542;DHT22;20784;51.332;12.410;2022-12-29T03:00:15;10.70;99.90
34542;DHT22;20784;51.332;12.410;2022-12-29T03:03:26;10.70;99.90
34542;DHT22;20784;51.332;12.410;2022-12-29T03:09:15;10.70;99.90
34542;DHT22;20784;51.332;12.410;2022-12-29T03:11:52;10.70;99.90
34542;DHT22;20784;51.332;12.410;2022-12-29T03:14:57;11.00;99.90
34542;DHT22;20784;51.332;12.410;2022-12-29T03:20:52;10.70;99.90
34542;DHT22;20784;51.332;12.410;2022-12-29T03:23:22;10.60;99.90
34542;DHT22;20784;51.332;12.410;2022-12-29T03:25:57;10.60;99.90
34542;DHT22;20784;51.332;12.410;2022-12-29T03:28:31;10.60;99.90
34542;DHT22;20784;51.332;12.410;2022-12-29T03:31:03;10.60;99.90
34542;DHT22;20784;51.332;12.410;2022-12-29T03:33:30;11.10;99.90
34542;DHT22;20784;51.332;12.410;2022-12-29T03:36:07;10.50;99.90
34542;DHT22;20784;51.332;12.410;2022-12-29T03:38:58;10.50;99.90
34542;DHT22;20784;51.332;12.410;2022-12-29T03:41:28;10.50;99.90
34542;DHT22;20784;51.332;12.410;2022-12-29T03:43:57;10.90;99.90
34542;DHT22;20784;51.332;12.410;2022-12-29T03:46:26;10.70;99.90
34542;DHT22;20784;51.332;12.410;2022-12-29T03:48:54;10.90;99.90
34542;DHT22;20784;51.332;12.410;2022-12-29T03:51:19;10.50;99.90
34542;DHT22;20784;51.332;12.410;2022-12-29T03:53:45;10.90;99.90
34542;DHT22;20784;51.332;12.410;2022-12-29T03:56:11;10.50;99.90
34542;DHT22;20784;51.332;12.410;2022-12-29T03:58:37;11.20;99.90
34542;DHT22;20784;51.332;12.410;2022-12-29T04:01:13;10.30;99.90
34542;DHT22;20784;51.332;12.410;2022-12-29T04:03:39;10.90;99.90
34542;DHT22;20784;51.332;12.410;2022-12-29T04:06:11;10.60;99.90
34542;DHT22;20784;51.332;12.410;2022-12-29T04:08:39;10.70;99.90
34542;DHT22;20784;51.332;12.410;2022-12-29T04:11:07;10.50;99.90
34542;DHT22;20784;51.332;12.410;2022-12-29T04:13:41;10.50;99.90
34542;DHT22;20784;51.332;12.410;2022-12-29T04:16:07;10.50;99.90
34542;DHT22;20784;51.332;12.410;2022-12-29T04:18:33;10.90;99.90
34542;DHT22;20784;51.332;12.410;2022-12-29T04:20:59;10.60;99.90
34542;DHT22;20784;51.332;12.410;2022-12-29T04:23:26;10.50;99.90
34542;DHT22;20784;51.332;12.410;2022-12-29T04:25:51;10.50;99.90
34542;DHT22;20784;51.332;12.410;2022-12-29T04:28:17;10.60;99.90
34542;DHT22;20784;51.332;12.410;2022-12-29T04:30:44;10.80;99.90
34542;DHT22;20784;51.332;12.410;2022-12-29T04:33:13;10.90;99.90
34542;DHT22;20784;51.332;12.410;2022-12-29T04:35:39;10.80;99.90
34542;DHT22;20784;51.332;12.410;2022-12-29T04:38:04;10.60;99.90
34542;DHT22;20784;51.332;12.410;2022-12-29T04:40:30;10.70;99.90
34542;DHT22;20784;51.332;12.410;2022-12-29T04:42:56;11.20;99.90
34542;DHT22;20784;51.332;12.410;2022-12-29T04:45:24;11.80;99.90
34542;DHT22;20784;51.332;12.410;2022-12-29T04:47:49;10.70;99.90
34542;DHT22;20784;51.332;12.410;2022-12-29T04:50:15;10.70;99.90
34542;DHT22;20784;51.332;12.410;2022-12-29T04:52:44;10.70;99.90
34542;DHT22;20784;51.332;12.410;2022-12-29T04:55:10;10.70;99.90
34542;DHT22;20784;51.332;12.410;2022-12-29T04:57:35;10.70;99.90
34542;DHT22;20784;51.332;12.410;2022-12-29T05:00:07;11.20;99.90
34542;DHT22;20784;51.332;12.410;2022-12-29T05:02:35;10.80;99.90
34542;DHT22;20784;51.332;12.410;2022-12-29T05:05:00;10.90;99.90
34542;DHT22;20784;51.332;12.410;2022-12-29T05:07:26;10.80;99.90
34542;DHT22;20784;51.332;12.410;2022-12-29T05:09:54;10.90;99.90
34542;DHT22;20784;51.332;12.410;2022-12-29T05:12:20;10.80;99.90
34542;DHT22;20784;51.332;12.410;2022-12-29T05:14:46;10.70;99.90
34542;DHT22;20784;51.332;12.410;2022-12-29T05:17:12;11.10;99.90
34542;DHT22;20784;51.332;12.410;2022-12-29T05:19:40;11.10;99.90
34542;DHT22;20784;51.332;12.410;2022-12-29T05:22:14;11.10;99.90
34542;DHT22;20784;51.332;12.410;2022-12-29T05:24:47;10.90;99.90
34542;DHT22;20784;51.332;12.410;2022-12-29T05:27:13;10.80;99.90
34542;DHT22;20784;51.332;12.410;2022-12-29T05:29:39;10.90;99.90
34542;DHT22;20784;51.332;12.410;2022-12-29T05:32:05;10.80;99.90
34542;DHT22;20784;51.332;12.410;2022-12-29T05:34:31;10.70;99.90
34542;DHT22;20784;51.332;12.410;2022-12-29T05:37:00;10.80;99.90
34542;DHT22;20784;51.332;12.410;2022-12-29T05:39:28;10.50;99.90
34542;DHT22;20784;51.332;12.410;2022-12-29T05:41:54;11.10;99.90
34542;DHT22;20784;51.332;12.410;2022-12-29T05:44:26;11.00;99.90
34542;DHT22;20784;51.332;12.410;2022-12-29T05:46:51;10.80;99.90
34542;DHT22;20784;51.332;12.410;2022-12-29T05:49:17;10.60;99.90
34542;DHT22;20784;51.332;12.410;2022-12-29T05:51:43;10.70;99.90
34542;DHT22;20784;51.332;12.410;2022-12-29T05:54:09;11.00;99.90
34542;DHT22;20784;51.332;12.410;2022-12-29T05:56:35;10.10;99.90
34542;DHT22;20784;51.332;12.410;2022-12-29T05:59:00;10.70;99.90
34542;DHT22;20784;51.332;12.410;2022-12-29T06:01:34;11.10;99.90
34542;DHT22;20784;51.332;12.410;2022-12-29T06:04:00;10.70;99.90
34542;DHT22;20784;51.332;12.410;2022-12-29T06:06:26;10.70;99.90
34542;DHT22;20784;51.332;12.410;2022-12-29T06:08:52;10.40;99.90
34542;DHT22;20784;51.332;12.410;2022-12-29T06:11:18;10.90;99.90
34542;DHT22;20784;51.332;12.410;2022-12-29T06:13:44;10.60;99.90
34542;DHT22;20784;51.332;12.410;2022-12-29T06:16:10;10.70;99.90
34542;DHT22;20784;51.332;12.410;2022-12-29T06:18:35;11.10;99.90
34542;DHT22;20784;51.332;12.410;2022-12-29T06:21:02;10.70;99.90
34542;DHT22;20784;51.332;12.410;2022-12-29T06:23:28;10.70;99.90
34542;DHT22;20784;51.332;12.410;2022-12-29T06:25:54;10.70;99.90
34542;DHT22;20784;51.332;12.410;2022-12-29T06:28:20;10.70;99.90
34542;DHT22;20784;51.332;12.410;2022-12-29T06:30:46;11.20;99.90
34542;DHT22;20784;51.332;12.410;2022-12-29T06:33:13;11.70;99.90
34542;DHT22;20784;51.332;12.410;2022-12-29T06:35:41;10.80;99.90
34542;DHT22;20784;51.332;12.410;2022-12-29T06:38:11;11.40;99.90
34542;DHT22;20784;51.332;12.410;2022-12-29T06:40:40;10.80;99.90
34542;DHT22;20784;51.332;12.410;2022-12-29T06:43:10;10.70;99.90
34542;DHT22;20784;51.332;12.410;2022-12-29T06:45:38;10.90;99.90
34542;DHT22;20784;51.332;12.410;2022-12-29T06:48:05;11.10;99.90
34542;DHT22;20784;51.332;12.410;2022-12-29T06:50:34;10.80;99.90
34542;DHT22;20784;51.332;12.410;2022-12-29T06:53:10;10.80;99.90
34542;DHT22;20784;51.332;12.410;2022-12-29T06:55:40;11.00;99.90
34542;DHT22;20784;51.332;12.410;2022-12-29T06:58:09;11.20;99.90
34542;DHT22;20784;51.332;12.410;2022-12-29T07:00:35;10.80;99.90
34542;DHT22;20784;51.332;12.410;2022-12-29T07:03:03;10.70;99.90
34542;DHT22;20784;51.332;12.410;2022-12-29T07:05:29;10.40;99.90
34542;DHT22;20784;51.332;12.410;2022-12-29T07:07:56;10.70;99.90
34542;DHT22;20784;51.332;12.410;2022-12-29T07:10:22;10.80;99.90
34542;DHT22;20784;51.332;12.410;2022-12-29T07:12:48;10.70;99.90
34542;DHT22;20784;51.332;12.410;2022-12-29T07:15:14;10.80;99.90
34542;DHT22;20784;51.332;12.410;2022-12-29T07:17:40;11.20;99.90
34542;DHT22;20784;51.332;12.410;2022-12-29T07:20:06;10.70;99.90
34542;DHT22;20784;51.332;12.410;2022-12-29T07:22:32;10.60;99.90
34542;DHT22;20784;51.332;12.410;2022-12-29T07:24:58;10.60;99.90
34542;DHT22;20784;51.332;12.410;2022-12-29T07:27:24;10.60;99.90
34542;DHT22;20784;51.332;12.410;2022-12-29T07:29:49;10.70;99.90
34542;DHT22;20784;51.332;12.410;2022-12-29T07:32:15;11.10;99.90
34542;DHT22;20784;51.332;12.410;2022-12-29T07:34:41;10.90;99.90
34542;DHT22;20784;51.332;12.410;2022-12-29T07:37:07;10.70;99.90
34542;DHT22;20784;51.332;12.410;2022-12-29T07:39:32;10.70;99.90
34542;DHT22;20784;51.332;12.410;2022-12-29T07:41:58;10.80;99.90
34542;DHT22;20784;51.332;12.410;2022-12-29T07:44:24;10.70;99.90
34542;DHT22;20784;51.332;12.410;2022-12-29T07:46:49;10.70;99.90
34542;DHT22;20784;51.332;12.410;2022-12-29T07:49:15;10.80;99.90
34542;DHT22;20784;51.332;12.410;2022-12-29T07:51:40;10.80;99.90
34542;DHT22;20784;51.332;12.410;2022-12-29T07:54:06;10.80;99.90
34542;DHT22;20784;51.332;12.410;2022-12-29T07:56:32;10.80;99.90
34542;DHT22;20784;51.332;12.410;2022-12-29T07:59:00;10.90;99.90
34542;DHT22;20784;51.332;12.410;2022-12-29T08:01:29;11.10;99.90
34542;DHT22;20784;51.332;12.410;2022-12-29T08:03:55;10.90;99.90
34542;DHT22;20784;51.332;12.410;2022-12-29T08:06:21;10.90;99.90
34542;DHT22;20784;51.332;12.410;2022-12-29T08:08:47;11.00;99.90
34542;DHT22;20784;51.332;12.410;2022-12-29T08:11:13;11.00;99.90
34542;DHT22;20784;51.332;12.410;2022-12-29T08:13:38;11.00;99.90
34542;DHT22;20784;51.332;12.410;2022-12-29T08:16:04;11.00;99.90
34542;DHT22;20784;51.332;12.410;2022-12-29T08:18:32;11.00;99.90
34542;DHT22;20784;51.332;12.410;2022-12-29T08:21:02;11.00;99.90
34542;DHT22;20784;51.332;12.410;2022-12-29T08:23:31;11.00;99.90
34542;DHT22;20784;51.332;12.410;2022-12-29T08:26:05;11.10;99.90
34542;DHT22;20784;51.332;12.410;2022-12-29T08:28:32;11.00;99.90
34542;DHT22;20784;51.332;12.410;2022-12-29T08:31:05;11.10;99.90
34542;DHT22;20784;51.332;12.410;2022-12-29T08:33:34;11.10;99.90
34542;DHT22;20784;51.332;12.410;2022-12-29T08:36:04;11.40;99.90
34542;DHT22;20784;51.332;12.410;2022-12-29T08:38:37;11.10;99.90
34542;DHT22;20784;51.332;12.410;2022-12-29T08:41:02;11.10;99.90
34542;DHT22;20784;51.332;12.410;2022-12-29T08:43:28;11.10;99.90
34542;DHT22;20784;51.332;12.410;2022-12-29T08:46:00;11.10;99.90
34542;DHT22;20784;51.332;12.410;2022-12-29T08:48:26;11.10;99.90
34542;DHT22;20784;51.332;12.410;2022-12-29T08:50:55;11.10;99.90
34542;DHT22;20784;51.332;12.410;2022-12-29T08:53:21;11.10;99.90
34542;DHT22;20784;51.332;12.410;2022-12-29T08:55:56;11.50;99.90
34542;DHT22;20784;51.332;12.410;2022-12-29T08:58:27;11.20;99.90
34542;DHT22;20784;51.332;12.410;2022-12-29T09:00:57;11.00;99.90
34542;DHT22;20784;51.332;12.410;2022-12-29T09:03:23;12.00;99.90
34542;DHT22;20784;51.332;12.410;2022-12-29T09:05:51;11.30;99.90
34542;DHT22;20784;51.332;12.410;2022-12-29T09:08:17;11.90;99.90
34542;DHT22;20784;51.332;12.410;2022-12-29T09:10:43;12.50;99.90
34542;DHT22;20784;51.332;12.410;2022-12-29T09:13:11;13.20;99.90
34542;DHT22;20784;51.332;12.410;2022-12-29T09:15:37;13.80;99.90
34542;DHT22;20784;51.332;12.410;2022-12-29T09:18:04;14.40;99.90
34542;DHT22;20784;51.332;12.410;2022-12-29T09:20:33;14.90;1.00
34542;DHT22;20784;51.332;12.410;2022-12-29T09:22:59;15.60;1.00
34542;DHT22;20784;51.332;12.410;2022-12-29T09:25:25;17.30;99.90
34542;DHT22;20784;51.332;12.410;2022-12-29T09:27:52;17.90;99.90
34542;DHT22;20784;51.332;12.410;2022-12-29T09:30:20;18.60;99.90
34542;DHT22;20784;51.332;12.410;2022-12-29T09:32:46;20.30;99.90
34542;DHT22;20784;51.332;12.410;2022-12-29T09:35:13;21.20;99.90
34542;DHT22;20784;51.332;12.410;2022-12-29T09:37:38;21.80;99.90
34542;DHT22;20784;51.332;12.410;2022-12-29T09:40:05;22.90;99.90
34542;DHT22;20784;51.332;12.410;2022-12-29T09:42:57;22.40;99.90
34542;DHT22;20784;51.332;12.410;2022-12-29T09:45:31;23.00;99.90
34542;DHT22;20784;51.332;12.410;2022-12-29T09:47:58;22.00;99.90
34542;DHT22;20784;51.332;12.410;2022-12-29T09:50:30;21.50;99.90
34542;DHT22;20784;51.332;12.410;2022-12-29T09:53:11;21.40;99.90
34542;DHT22;20784;51.332;12.410;2022-12-29T09:55:47;19.80;99.90
34542;DHT22;20784;51.332;12.410;2022-12-29T09:58:34;18.20;99.90
34542;DHT22;20784;51.332;12.410;2022-12-29T10:01:14;16.90;99.90
34542;DHT22;20784;51.332;12.410;2022-12-29T10:03:52;16.90;99.90
34542;DHT22;20784;51.332;12.410;2022-12-29T10:06:31;16.90;99.90
34542;DHT22;20784;51.332;12.410;2022-12-29T10:09:30;17.50;99.90
34542;DHT22;20784;51.332;12.410;2022-12-29T10:12:31;17.70;99.90
34542;DHT22;20784;51.332;12.410;2022-12-29T10:15:33;16.30;99.90
34542;DHT22;20784;51.332;12.410;2022-12-29T10:18:27;15.30;99.90
34542;DHT22;20784;51.332;12.410;2022-12-29T10:23:53;14.20;99.90
34542;DHT22;20784;51.332;12.410;2022-12-29T10:26:23;13.80;99.90
34542;DHT22;20784;51.332;12.410;2022-12-29T10:28:56;13.60;1.00
34542;DHT22;20784;51.332;12.410;2022-12-29T10:31:37;13.50;1.00
34542;DHT22;20784;51.332;12.410;2022-12-29T10:34:37;13.40;1.00
34542;DHT22;20784;51.332;12.410;2022-12-29T10:37:11;13.30;1.00
34542;DHT22;20784;51.332;12.410;2022-12-29T10:39:49;13.30;1.00
34542;DHT22;20784;51.332;12.410;2022-12-29T10:42:33;13.20;1.00
34542;DHT22;20784;51.332;12.410;2022-12-29T10:45:00;13.10;1.00
34542;DHT22;20784;51.332;12.410;2022-12-29T10:47:32;13.20;1.00
34542;DHT22;20784;51.332;12.410;2022-12-29T10:50:00;13.30;1.00
34542;DHT22;20784;51.332;12.410;2022-12-29T10:52:38;13.30;1.00
34542;DHT22;20784;51.332;12.410;2022-12-29T10:55:10;13.30;1.00
34542;DHT22;20784;51.332;12.410;2022-12-29T10:57:47;13.20;1.00
34542;DHT22;20784;51.332;12.410;2022-12-29T11:00:15;13.20;1.00
34542;DHT22;20784;51.332;12.410;2022-12-29T11:05:41;13.20;1.00
34542;DHT22;20784;51.332;12.410;2022-12-29T11:08:15;13.20;1.00
34542;DHT22;20784;51.332;12.410;2022-12-29T11:10:43;13.30;1.00
34542;DHT22;20784;51.332;12.410;2022-12-29T11:13:25;13.30;1.00
34542;DHT22;20784;51.332;12.410;2022-12-29T11:15:51;13.40;1.00
34542;DHT22;20784;51.332;12.410;2022-12-29T11:18:33;13.40;1.00
34542;DHT22;20784;51.332;12.410;2022-12-29T11:21:00;13.40;1.00
34542;DHT22;20784;51.332;12.410;2022-12-29T11:28:37;13.40;1.00
34542;DHT22;20784;51.332;12.410;2022-12-29T11:31:05;13.50;1.00
34542;DHT22;20784;51.332;12.410;2022-12-29T11:33:32;13.80;1.00
34542;DHT22;20784;51.332;12.410;2022-12-29T11:36:10;14.00;1.00
34542;DHT22;20784;51.332;12.410;2022-12-29T11:38:40;14.40;1.00
34542;DHT22;20784;51.332;12.410;2022-12-29T11:41:11;15.20;99.90
34542;DHT22;20784;51.332;12.410;2022-12-29T11:43:41;16.20;99.90
34542;DHT22;20784;51.332;12.410;2022-12-29T11:46:16;16.30;99.90
34542;DHT22;20784;51.332;12.410;2022-12-29T11:48:43;16.20;99.90
34542;DHT22;20784;51.332;12.410;2022-12-29T11:51:10;16.10;99.90
34542;DHT22;20784;51.332;12.410;2022-12-29T11:53:47;15.60;99.90
34542;DHT22;20784;51.332;12.410;2022-12-29T11:56:20;14.90;99.90
34542;DHT22;20784;51.332;12.410;2022-12-29T11:58:49;14.60;99.90
34542;DHT22;20784;51.332;12.410;2022-12-29T12:01:36;14.40;99.90
34542;DHT22;20784;51.332;12.410;2022-12-29T12:04:12;14.10;99.90
34542;DHT22;20784;51.332;12.410;2022-12-29T12:06:44;14.10;1.00
34542;DHT22;20784;51.332;12.410;2022-12-29T12:09:23;14.20;1.00
34542;DHT22;20784;51.332;12.410;2022-12-29T12:11:52;14.00;1.00
34542;DHT22;20784;51.332;12.410;2022-12-29T12:14:38;14.00;1.00
34542;DHT22;20784;51.332;12.410;2022-12-29T12:17:12;14.10;1.00
34542;DHT22;20784;51.332;12.410;2022-12-29T12:22:36;14.40;1.00
34542;DHT22;20784;51.332;12.410;2022-12-29T12:26:08;14.50;1.00
34542;DHT22;20784;51.332;12.410;2022-12-29T12:28:21;14.70;1.00
34542;DHT22;20784;51.332;12.410;2022-12-29T12:30:54;14.90;1.00
34542;DHT22;20784;51.332;12.410;2022-12-29T12:33:38;14.80;1.00
34542;DHT22;20784;51.332;12.410;2022-12-29T12:36:44;14.80;1.00
34542;DHT22;20784;51.332;12.410;2022-12-29T12:39:36;14.50;1.00
34542;DHT22;20784;51.332;12.410;2022-12-29T12:42:25;14.50;1.00
34542;DHT22;20784;51.332;12.410;2022-12-29T12:47:54;14.50;1.00
34542;DHT22;20784;51.332;12.410;2022-12-29T12:56:47;13.90;1.00
34542;DHT22;20784;51.332;12.410;2022-12-29T13:13:44;13.50;1.00
34542;DHT22;20784;51.332;12.410;2022-12-29T13:19:10;13.40;1.00
34542;DHT22;20784;51.332;12.410;2022-12-29T13:24:57;13.40;1.00
34542;DHT22;20784;51.332;12.410;2022-12-29T13:30:34;13.30;1.00
34542;DHT22;20784;51.332;12.410;2022-12-29T13:39:02;13.30;1.30
34542;DHT22;20784;51.332;12.410;2022-12-29T13:44:22;13.10;2.90
34542;DHT22;20784;51.332;12.410;2022-12-29T13:46:49;13.10;4.30
34542;DHT22;20784;51.332;12.410;2022-12-29T13:49:20;13.10;1.00
34542;DHT22;20784;51.332;12.410;2022-12-29T13:51:50;13.10;1.00
34542;DHT22;20784;51.332;12.410;2022-12-29T13:54:45;13.00;1.00
34542;DHT22;20784;51.332;12.410;2022-12-29T14:00:16;13.20;56.10
34542;DHT22;20784;51.332;12.410;2022-12-29T14:07:44;13.20;10.80
34542;DHT22;20784;51.332;12.410;2022-12-29T14:10:50;13.10;10.70
34542;DHT22;20784;51.332;12.410;2022-12-29T14:13:19;13.10;16.60
34542;DHT22;20784;51.332;12.410;2022-12-29T14:15:54;13.00;20.70
34542;DHT22;20784;51.332;12.410;2022-12-29T14:18:26;12.90;27.30
34542;DHT22;20784;51.332;12.410;2022-12-29T14:20:56;12.90;32.70
34542;DHT22;20784;51.332;12.410;2022-12-29T14:28:34;12.70;40.20
34542;DHT22;20784;51.332;12.410;2022-12-29T14:33:39;12.70;43.30
34542;DHT22;20784;51.332;12.410;2022-12-29T14:38:59;12.60;46.30
34542;DHT22;20784;51.332;12.410;2022-12-29T14:41:29;12.50;46.10
34542;DHT22;20784;51.332;12.410;2022-12-29T14:44:12;12.50;44.10
34542;DHT22;20784;51.332;12.410;2022-12-29T14:47:04;12.50;41.10
34542;DHT22;20784;51.332;12.410;2022-12-29T14:49:41;12.50;42.90
34542;DHT22;20784;51.332;12.410;2022-12-29T14:52:20;12.40;43.40
34542;DHT22;20784;51.332;12.410;2022-12-29T14:54:52;12.40;38.60
34542;DHT22;20784;51.332;12.410;2022-12-29T14:57:37;12.40;45.20
34542;DHT22;20784;51.332;12.410;2022-12-29T15:00:16;12.30;42.70
34542;DHT22;20784;51.332;12.410;2022-12-29T15:02:53;12.30;41.80
34542;DHT22;20784;51.332;12.410;2022-12-29T15:05:31;12.30;46.30
34542;DHT22;20784;51.332;12.410;2022-12-29T15:08:05;12.30;49.70
34542;DHT22;20784;51.332;12.410;2022-12-29T15:10:42;12.30;57.70
34542;DHT22;20784;51.332;12.410;2022-12-29T15:13:17;12.20;67.10
34542;DHT22;20784;51.332;12.410;2022-12-29T15:15:45;12.10;75.20
34542;DHT22;20784;51.332;12.410;2022-12-29T15:18:32;12.20;81.80
34542;DHT22;20784;51.332;12.410;2022-12-29T15:21:06;12.10;80.40
34542;DHT22;20784;51.332;12.410;2022-12-29T15:23:35;12.10;84.60
34542;DHT22;20784;51.332;12.410;2022-12-29T15:26:07;12.00;88.00
34542;DHT22;20784;51.332;12.410;2022-12-29T15:28:46;12.00;91.30
34542;DHT22;20784;51.332;12.410;2022-12-29T15:31:21;11.90;90.40
34542;DHT22;20784;51.332;12.410;2022-12-29T15:33:52;11.90;91.20
34542;DHT22;20784;51.332;12.410;2022-12-29T15:36:23;11.90;91.80
34542;DHT22;20784;51.332;12.410;2022-12-29T15:38:49;11.90;90.40
34542;DHT22;20784;51.332;12.410;2022-12-29T15:41:22;11.90;85.40
34542;DHT22;20784;51.332;12.410;2022-12-29T15:46:33;11.80;99.90
34542;DHT22;20784;51.332;12.410;2022-12-29T15:48:59;11.80;82.70
34542;DHT22;20784;51.332;12.410;2022-12-29T15:51:33;11.90;83.70
34542;DHT22;20784;51.332;12.410;2022-12-29T15:54:00;11.70;88.60
34542;DHT22;20784;51.332;12.410;2022-12-29T15:56:29;11.70;88.10
34542;DHT22;20784;51.332;12.410;2022-12-29T15:58:56;11.60;93.80
34542;DHT22;20784;51.332;12.410;2022-12-29T16:03:58;11.60;90.60
34542;DHT22;20784;51.332;12.410;2022-12-29T16:06:28;11.60;91.90
34542;DHT22;20784;51.332;12.410;2022-12-29T16:09:02;11.50;92.70
34542;DHT22;20784;51.332;12.410;2022-12-29T16:11:35;11.50;94.20
34542;DHT22;20784;51.332;12.410;2022-12-29T16:14:02;11.50;93.90
34542;DHT22;20784;51.332;12.410;2022-12-29T16:16:35;11.50;95.70
34542;DHT22;20784;51.332;12.410;2022-12-29T16:21:38;11.40;95.20
34542;DHT22;20784;51.332;12.410;2022-12-29T16:24:12;11.40;95.70
34542;DHT22;20784;51.332;12.410;2022-12-29T16:26:39;11.30;94.40
34542;DHT22;20784;51.332;12.410;2022-12-29T16:29:11;11.30;94.80
34542;DHT22;20784;51.332;12.410;2022-12-29T16:34:25;11.20;94.10
34542;DHT22;20784;51.332;12.410;2022-12-29T16:41:53;11.10;91.00
34542;DHT22;20784;51.332;12.410;2022-12-29T16:44:24;11.00;92.00
34542;DHT22;20784;51.332;12.410;2022-12-29T16:47:03;11.00;92.90
34542;DHT22;20784;51.332;12.410;2022-12-29T16:49:42;11.00;91.00
34542;DHT22;20784;51.332;12.410;2022-12-29T16:52:32;10.90;89.30
34542;DHT22;20784;51.332;12.410;2022-12-29T16:54:59;10.90;86.70
34542;DHT22;20784;51.332;12.410;2022-12-29T16:57:33;10.80;87.90
34542;DHT22;20784;51.332;12.410;2022-12-29T17:00:05;10.70;90.20
34542;DHT22;20784;51.332;12.410;2022-12-29T17:02:34;10.70;90.60
34542;DHT22;20784;51.332;12.410;2022-12-29T17:05:18;10.70;90.10
34542;DHT22;20784;51.332;12.410;2022-12-29T17:07:45;10.60;90.40
34542;DHT22;20784;51.332;12.410;2022-12-29T17:10:11;10.60;92.30
34542;DHT22;20784;51.332;12.410;2022-12-29T17:12:42;10.50;92.50
34542;DHT22;20784;51.332;12.410;2022-12-29T17:15:17;10.50;93.40
34542;DHT22;20784;51.332;12.410;2022-12-29T17:17:46;10.60;93.80
34542;DHT22;20784;51.332;12.410;2022-12-29T17:20:27;10.60;91.30
34542;DHT22;20784;51.332;12.410;2022-12-29T17:22:54;10.60;92.00
34542;DHT22;20784;51.332;12.410;2022-12-29T17:25:29;10.50;99.50
34542;DHT22;20784;51.332;12.410;2022-12-29T17:28:00;10.40;93.30
34542;DHT22;20784;51.332;12.410;2022-12-29T17:30:29;10.40;94.70
34542;DHT22;20784;51.332;12.410;2022-12-29T17:36:00;10.30;99.30
34542;DHT22;20784;51.332;12.410;2022-12-29T17:38:35;10.20;99.90
34542;DHT22;20784;51.332;12.410;2022-12-29T17:41:02;10.30;96.80
34542;DHT22;20784;51.332;12.410;2022-12-29T17:43:28;10.30;95.90
34542;DHT22;20784;51.332;12.410;2022-12-29T17:45:55;10.20;95.50
34542;DHT22;20784;51.332;12.410;2022-12-29T17:48:22;10.10;96.90
34542;DHT22;20784;51.332;12.410;2022-12-29T17:50:52;10.10;95.90
34542;DHT22;20784;51.332;12.410;2022-12-29T17:53:21;10.00;97.00
34542;DHT22;20784;51.332;12.410;2022-12-29T17:55:53;10.00;96.30
34542;DHT22;20784;51.332;12.410;2022-12-29T17:58:29;10.00;96.20
34542;DHT22;20784;51.332;12.410;2022-12-29T18:01:00;10.00;96.50